createdAt,value
2023-11-10T00:01:15.218Z,7.88
2023-11-10T00:03:43.574Z,8.10
2023-11-10T00:06:11.734Z,8.04
2023-11-10T00:08:39.527Z,8.08
2023-11-10T00:11:08.857Z,8.05
2023-11-10T00:13:36.506Z,8.06
2023-11-10T00:16:04.309Z,8.08
2023-11-10T00:18:31.721Z,8.08
2023-11-10T00:20:59.560Z,8.10
2023-11-10T00:23:27.099Z,8.13
2023-11-10T00:25:54.394Z,8.17
2023-11-10T00:28:22.155Z,8.18
2023-11-10T00:30:49.676Z,8.17
2023-11-10T00:33:17.269Z,8.18
2023-11-10T00:35:44.822Z,8.18
2023-11-10T00:38:12.335Z,8.05
2023-11-10T00:40:39.680Z,8.12
2023-11-10T00:43:07.731Z,7.80
2023-11-10T00:45:36.412Z,7.77
2023-11-10T00:48:04.564Z,8.04
2023-11-10T00:50:32.794Z,8.04
2023-11-10T00:53:00.721Z,8.13
2023-11-10T00:55:28.247Z,8.17
2023-11-10T00:57:56.249Z,8.23
2023-11-10T01:00:23.947Z,7.73
2023-11-10T01:02:51.733Z,8.33
2023-11-10T01:05:22.486Z,8.26
2023-11-10T01:07:50.646Z,8.04
2023-11-10T01:10:18.140Z,7.97
2023-11-10T01:12:46.687Z,8.29
2023-11-10T01:15:17.726Z,7.69
2023-11-10T01:17:45.581Z,8.26
2023-11-10T01:20:13.301Z,8.22
2023-11-10T01:22:43.946Z,7.90
2023-11-10T01:25:15.423Z,8.07
2023-11-10T01:27:45.564Z,7.90
2023-11-10T01:30:14.112Z,8.17
2023-11-10T01:32:43.005Z,8.02
2023-11-10T01:35:11.742Z,8.15
2023-11-10T01:37:39.037Z,7.98
2023-11-10T01:40:08.096Z,7.93
2023-11-10T01:42:35.947Z,8.19
2023-11-10T01:45:03.933Z,8.15
2023-11-10T01:47:31.882Z,8.17
2023-11-10T01:50:02.271Z,8.20
2023-11-10T01:52:32.486Z,8.21
2023-11-10T01:55:00.870Z,8.22
2023-11-10T01:57:31.029Z,8.21
2023-11-10T02:00:02.640Z,8.17
2023-11-10T02:02:39.518Z,8.13
2023-11-10T02:05:09.625Z,7.85
2023-11-10T02:07:36.970Z,8.15
2023-11-10T02:10:04.906Z,8.15
2023-11-10T02:12:32.863Z,8.13
2023-11-10T02:15:00.877Z,8.14
2023-11-10T02:17:30.991Z,8.15
2023-11-10T02:19:58.745Z,8.21
2023-11-10T02:22:26.224Z,8.22
2023-11-10T02:24:57.480Z,8.20
2023-11-10T02:27:24.930Z,8.25
2023-11-10T02:29:52.245Z,7.75
2023-11-10T02:32:19.594Z,8.23
2023-11-10T02:34:47.168Z,8.23
2023-11-10T02:37:16.712Z,8.23
2023-11-10T02:39:44.555Z,8.15
2023-11-10T02:42:12.208Z,8.16
2023-11-10T02:44:39.525Z,8.12
2023-11-10T02:47:07.264Z,8.16
2023-11-10T02:49:35.092Z,8.16
2023-11-10T02:52:02.650Z,8.17
2023-11-10T02:54:30.197Z,8.08
2023-11-10T02:56:57.654Z,8.23
2023-11-10T02:59:25.154Z,7.72
2023-11-10T03:01:52.944Z,8.23
2023-11-10T03:04:20.718Z,8.22
2023-11-10T03:06:50.141Z,8.15
2023-11-10T03:09:18.468Z,7.92
2023-11-10T03:11:46.451Z,8.16
2023-11-10T03:14:13.841Z,8.13
2023-11-10T03:16:45.216Z,7.84
2023-11-10T03:19:12.853Z,7.92
2023-11-10T03:21:41.024Z,7.72
2023-11-10T03:24:09.207Z,7.77
2023-11-10T03:26:37.138Z,7.39
2023-11-10T03:29:07.762Z,7.88
2023-11-10T03:31:37.198Z,8.08
2023-11-10T03:34:05.036Z,8.02
2023-11-10T03:36:32.478Z,7.82
2023-11-10T03:39:00.281Z,7.48
2023-11-10T03:41:27.802Z,7.72
2023-11-10T03:43:55.093Z,7.78
2023-11-10T03:46:22.701Z,7.72
2023-11-10T03:48:51.540Z,7.70
2023-11-10T03:51:19.500Z,7.69
2023-11-10T03:53:47.260Z,7.43
2023-11-10T03:56:15.054Z,7.67
2023-11-10T03:58:44.019Z,7.84
2023-11-10T04:01:15.280Z,7.84
2023-11-10T04:03:44.328Z,7.74
2023-11-10T04:06:12.620Z,7.82
2023-11-10T04:08:40.513Z,7.80
2023-11-10T04:11:10.702Z,7.73
2023-11-10T04:13:38.122Z,7.65
2023-11-10T04:16:07.903Z,7.71
2023-11-10T04:18:38.445Z,7.73
2023-11-10T04:21:06.524Z,7.72
2023-11-10T04:23:35.193Z,7.65
2023-11-10T04:26:07.664Z,7.72
2023-11-10T04:28:39.637Z,7.76
2023-11-10T04:31:07.603Z,7.76
2023-11-10T04:33:35.375Z,7.45
2023-11-10T04:36:05.729Z,7.77
2023-11-10T04:38:33.032Z,7.42
2023-11-10T04:41:02.853Z,7.54
2023-11-10T04:43:30.696Z,7.76
2023-11-10T04:45:58.451Z,7.76
2023-11-10T04:48:26.021Z,7.73
2023-11-10T04:50:53.434Z,7.70
2023-11-10T04:53:21.139Z,7.77
2023-11-10T04:55:48.990Z,7.60
2023-11-10T04:58:16.945Z,7.84
2023-11-10T05:00:44.666Z,7.79
2023-11-10T05:03:13.744Z,7.80
2023-11-10T05:05:41.878Z,7.73
2023-11-10T05:08:09.144Z,7.74
2023-11-10T05:10:36.891Z,7.73
2023-11-10T05:13:04.712Z,7.81
2023-11-10T05:15:32.275Z,7.81
2023-11-10T05:17:59.971Z,7.85
2023-11-10T05:20:27.694Z,7.76
2023-11-10T05:22:57.919Z,7.56
2023-11-10T05:25:26.494Z,7.65
2023-11-10T05:27:59.769Z,7.46
2023-11-10T05:30:28.964Z,7.54
2023-11-10T05:32:56.390Z,7.35
2023-11-10T05:35:23.771Z,7.38
2023-11-10T05:37:51.724Z,7.75
2023-11-10T05:40:19.312Z,7.89
2023-11-10T05:42:48.047Z,8.01
2023-11-10T05:45:16.138Z,8.10
2023-11-10T05:47:43.836Z,8.17
2023-11-10T05:50:11.736Z,8.16
2023-11-10T05:52:39.311Z,8.14
2023-11-10T05:55:07.105Z,8.16
2023-11-10T05:57:34.664Z,8.20
2023-11-10T06:00:02.415Z,8.22
2023-11-10T06:02:37.347Z,8.02
2023-11-10T06:05:08.193Z,8.32
2023-11-10T06:07:35.757Z,8.19
2023-11-10T06:10:05.529Z,8.04
2023-11-10T06:12:33.782Z,8.03
2023-11-10T06:15:01.296Z,8.32
2023-11-10T06:17:29.427Z,8.41
2023-11-10T06:19:57.305Z,8.26
2023-11-10T06:22:26.443Z,8.45
2023-11-10T06:24:54.001Z,8.23
2023-11-10T06:27:22.707Z,8.54
2023-11-10T06:29:50.420Z,8.54
2023-11-10T06:32:19.589Z,8.28
2023-11-10T06:34:48.299Z,8.57
2023-11-10T06:37:17.469Z,8.65
2023-11-10T06:39:45.435Z,8.13
2023-11-10T06:42:13.050Z,8.75
2023-11-10T06:44:40.335Z,8.70
2023-11-10T06:47:08.846Z,8.87
2023-11-10T06:49:36.344Z,8.69
2023-11-10T06:52:03.977Z,9.02
2023-11-10T06:54:31.399Z,8.91
2023-11-10T06:57:00.406Z,9.01
2023-11-10T06:59:29.855Z,8.84
2023-11-10T07:01:57.385Z,9.10
2023-11-10T07:04:25.683Z,9.26
2023-11-10T07:06:53.367Z,9.34
2023-11-10T07:09:20.849Z,9.41
2023-11-10T07:11:49.531Z,9.42
2023-11-10T07:14:17.299Z,9.47
2023-11-10T07:16:45.581Z,9.61
2023-11-10T07:19:13.011Z,9.74
2023-11-10T07:21:41.363Z,9.85
2023-11-10T07:24:09.220Z,9.93
2023-11-10T07:26:37.143Z,9.94
2023-11-10T07:29:04.923Z,9.95
2023-11-10T07:31:33.382Z,9.93
2023-11-10T07:34:01.177Z,9.79
2023-11-10T07:36:28.874Z,9.66
2023-11-10T07:38:56.921Z,9.64
2023-11-10T07:41:24.513Z,9.70
2023-11-10T07:43:51.999Z,9.81
2023-11-10T07:46:19.559Z,9.85
2023-11-10T07:48:47.076Z,9.78
2023-11-10T07:51:14.762Z,9.79
2023-11-10T07:53:42.825Z,9.90
2023-11-10T07:56:10.962Z,9.93
2023-11-10T07:58:38.387Z,10.21
2023-11-10T08:01:06.069Z,10.39
2023-11-10T08:03:35.014Z,10.50
2023-11-10T08:06:02.403Z,10.65
2023-11-10T08:08:29.838Z,10.55
2023-11-10T08:10:57.298Z,10.51
2023-11-10T08:13:24.734Z,10.51
2023-11-10T08:15:52.679Z,10.23
2023-11-10T08:18:22.709Z,10.10
2023-11-10T08:20:50.139Z,10.18
2023-11-10T08:23:17.718Z,10.01
2023-11-10T08:25:45.329Z,9.86
2023-11-10T08:28:13.254Z,9.57
2023-11-10T08:30:40.921Z,9.60
2023-11-10T08:33:08.657Z,9.48
2023-11-10T08:35:36.200Z,9.28
2023-11-10T08:38:04.854Z,9.53
2023-11-10T08:40:34.909Z,9.58
2023-11-10T08:43:03.408Z,9.81
2023-11-10T08:45:30.836Z,10.11
2023-11-10T08:47:59.422Z,10.19
2023-11-10T08:50:27.448Z,10.34
2023-11-10T08:52:54.920Z,10.37
2023-11-10T08:55:23.788Z,10.43
2023-11-10T08:57:51.948Z,10.56
2023-11-10T09:00:19.660Z,10.77
2023-11-10T09:02:48.062Z,10.88
2023-11-10T09:05:16.713Z,10.61
2023-11-10T09:07:44.211Z,10.86
2023-11-10T09:10:13.320Z,10.78
2023-11-10T09:12:44.938Z,10.60
2023-11-10T09:15:13.299Z,11.00
2023-11-10T09:17:40.942Z,10.88
2023-11-10T09:20:11.056Z,10.56
2023-11-10T09:22:40.039Z,10.55
2023-11-10T09:25:10.912Z,10.71
2023-11-10T09:27:38.435Z,10.75
2023-11-10T09:30:06.458Z,10.77
2023-11-10T09:32:34.010Z,10.85
2023-11-10T09:35:01.464Z,10.86
2023-11-10T09:37:30.772Z,10.89
2023-11-10T09:39:59.084Z,10.93
2023-11-10T09:42:27.889Z,10.86
2023-11-10T09:44:58.262Z,10.72
2023-11-10T09:47:27.566Z,10.53
2023-11-10T09:49:55.122Z,10.17
2023-11-10T09:52:24.770Z,10.31
2023-11-10T09:54:55.737Z,10.37
2023-11-10T09:57:26.981Z,10.37
2023-11-10T09:59:57.247Z,10.02
2023-11-10T10:02:25.161Z,10.26
2023-11-10T10:04:52.527Z,10.22
2023-11-10T10:07:20.188Z,10.29
2023-11-10T10:09:48.462Z,10.38
2023-11-10T10:12:16.081Z,10.45
2023-11-10T10:14:55.192Z,10.46
2023-11-10T10:17:38.357Z,10.23
2023-11-10T10:20:19.547Z,10.43
2023-11-10T10:22:50.808Z,10.30
2023-11-10T10:25:22.018Z,10.35
2023-11-10T10:27:52.248Z,10.38
2023-11-10T10:30:20.144Z,10.11
2023-11-10T10:32:48.818Z,10.28
2023-11-10T10:35:16.804Z,10.20
2023-11-10T10:37:44.422Z,10.17
2023-11-10T10:40:15.478Z,10.10
2023-11-10T10:42:45.138Z,10.02
2023-11-10T10:45:13.227Z,9.92
2023-11-10T10:47:42.819Z,9.99
2023-11-10T10:50:12.130Z,9.97
2023-11-10T10:52:41.202Z,9.91
2023-11-10T10:55:10.693Z,9.88
2023-11-10T10:57:41.389Z,9.89
2023-11-10T11:00:18.376Z,9.35
2023-11-10T11:02:55.934Z,9.72
2023-11-10T11:06:00.982Z,9.58
2023-11-10T11:09:02.967Z,9.55
2023-11-10T11:11:39.700Z,9.61
2023-11-10T11:14:38.378Z,9.64
2023-11-10T11:17:43.240Z,9.63
2023-11-10T11:20:15.036Z,9.44
2023-11-10T11:22:42.722Z,9.73
2023-11-10T11:25:10.878Z,9.77
2023-11-10T11:27:39.491Z,9.77
2023-11-10T11:30:14.399Z,9.41
2023-11-10T11:32:43.288Z,9.54
2023-11-10T11:35:20.552Z,9.75
2023-11-10T11:37:48.056Z,9.45
2023-11-10T11:40:15.888Z,9.47
2023-11-10T11:42:45.006Z,9.71
2023-11-10T11:45:14.121Z,9.69
2023-11-10T11:47:45.861Z,9.68
2023-11-10T11:50:13.983Z,9.56
2023-11-10T11:52:42.155Z,9.41
2023-11-10T11:55:10.174Z,9.25
2023-11-10T11:57:38.750Z,9.08
2023-11-10T12:00:10.507Z,9.16
2023-11-10T12:02:42.392Z,9.14
2023-11-10T12:05:14.938Z,8.83
2023-11-10T12:07:44.298Z,8.86
2023-11-10T12:10:12.417Z,9.08
2023-11-10T12:12:40.289Z,9.03
2023-11-10T12:15:09.833Z,8.98
2023-11-10T12:17:39.032Z,8.41
2023-11-10T12:20:10.532Z,8.96
2023-11-10T12:22:38.018Z,8.75
2023-11-10T12:25:10.956Z,9.08
2023-11-10T12:27:39.265Z,9.16
2023-11-10T12:30:07.896Z,9.21
2023-11-10T12:32:41.038Z,9.16
2023-11-10T12:35:15.906Z,9.13
2023-11-10T12:37:45.312Z,9.11
2023-11-10T12:40:14.334Z,9.13
2023-11-10T12:42:41.965Z,9.12
2023-11-10T12:45:14.032Z,9.04
2023-11-10T12:47:54.336Z,9.08
2023-11-10T12:50:29.648Z,9.04
2023-11-10T12:52:58.001Z,9.00
2023-11-10T12:55:25.419Z,8.68
2023-11-10T12:57:53.837Z,9.02
2023-11-10T13:00:21.943Z,9.03
2023-11-10T13:02:50.473Z,8.97
2023-11-10T13:05:21.480Z,8.93
2023-11-10T13:07:49.026Z,8.87
2023-11-10T13:10:16.455Z,8.56
2023-11-10T13:12:44.212Z,8.47
2023-11-10T13:15:11.682Z,8.76
2023-11-10T13:17:39.129Z,8.49
2023-11-10T13:20:10.162Z,8.70
2023-11-10T13:22:38.328Z,8.60
2023-11-10T13:25:07.304Z,8.54
2023-11-10T13:27:35.088Z,8.32
2023-11-10T13:30:04.642Z,8.41
2023-11-10T13:32:32.834Z,8.33
2023-11-10T13:35:05.865Z,8.31
2023-11-10T13:37:33.334Z,8.26
2023-11-10T13:40:00.966Z,8.15
2023-11-10T13:42:28.545Z,8.15
2023-11-10T13:44:56.116Z,8.10
2023-11-10T13:47:23.976Z,7.59
2023-11-10T13:49:51.944Z,7.90
2023-11-10T13:52:19.538Z,8.03
2023-11-10T13:54:47.694Z,8.01
2023-11-10T13:57:15.480Z,7.88
2023-11-10T13:59:43.165Z,7.78
2023-11-10T14:02:10.803Z,7.71
2023-11-10T14:04:38.549Z,8.03
2023-11-10T14:07:06.199Z,7.99
2023-11-10T14:09:35.327Z,7.73
2023-11-10T14:12:03.787Z,7.89
2023-11-10T14:14:35.732Z,7.99
2023-11-10T14:17:04.581Z,7.93
2023-11-10T14:19:31.918Z,7.91
2023-11-10T14:21:59.342Z,7.87
2023-11-10T14:24:27.076Z,7.80
2023-11-10T14:26:56.485Z,7.39
2023-11-10T14:29:23.826Z,7.71
2023-11-10T14:31:51.522Z,7.66
2023-11-10T14:34:19.194Z,7.67
2023-11-10T14:36:47.219Z,7.67
2023-11-10T14:39:18.446Z,7.63
2023-11-10T14:41:47.760Z,7.58
2023-11-10T14:44:16.285Z,7.55
2023-11-10T14:46:44.859Z,7.47
2023-11-10T14:49:14.142Z,7.46
2023-11-10T14:51:47.427Z,7.46
2023-11-10T14:54:15.097Z,7.34
2023-11-10T14:56:42.863Z,7.41
2023-11-10T14:59:12.626Z,7.41
2023-11-10T15:01:40.529Z,6.98
2023-11-10T15:04:08.576Z,7.14
2023-11-10T15:06:38.170Z,7.11
2023-11-10T15:09:08.097Z,7.01
2023-11-10T15:11:38.092Z,6.69
2023-11-10T15:14:08.540Z,6.68
2023-11-10T15:16:38.169Z,7.05
2023-11-10T15:19:07.502Z,7.08
2023-11-10T15:21:35.504Z,7.17
2023-11-10T15:24:02.893Z,7.18
2023-11-10T15:26:31.564Z,7.15
2023-11-10T15:28:59.438Z,7.23
2023-11-10T15:31:30.709Z,7.25
2023-11-10T15:33:58.582Z,7.08
2023-11-10T15:36:30.568Z,7.04
2023-11-10T15:39:06.269Z,7.35
2023-11-10T15:41:42.980Z,7.36
2023-11-10T15:44:11.170Z,7.30
2023-11-10T15:46:44.824Z,7.28
2023-11-10T15:49:13.335Z,7.10
2023-11-10T15:51:52.989Z,7.28
2023-11-10T15:54:28.704Z,7.19
2023-11-10T15:57:01.131Z,7.16
2023-11-10T15:59:29.474Z,7.09
2023-11-10T16:01:58.287Z,7.00
2023-11-10T16:04:26.480Z,7.19
2023-11-10T16:06:54.305Z,7.25
2023-11-10T16:09:25.468Z,7.33
2023-11-10T16:11:54.272Z,7.38
2023-11-10T16:14:22.449Z,7.21
2023-11-10T16:16:51.196Z,7.27
2023-11-10T16:19:21.871Z,7.44
2023-11-10T16:21:49.812Z,7.24
2023-11-10T16:24:19.718Z,7.18
2023-11-10T16:26:49.268Z,7.38
2023-11-10T16:29:20.163Z,7.49
2023-11-10T16:31:54.319Z,7.43
2023-11-10T16:34:22.092Z,7.40
2023-11-10T16:36:49.660Z,7.07
2023-11-10T16:39:20.217Z,7.38
2023-11-10T16:41:53.927Z,7.37
2023-11-10T16:44:24.323Z,7.29
2023-11-10T16:46:54.225Z,7.27
2023-11-10T16:49:24.523Z,7.26
2023-11-10T16:51:54.385Z,7.23
2023-11-10T16:54:23.172Z,7.32
2023-11-10T16:56:50.567Z,7.28
2023-11-10T16:59:18.077Z,7.30
2023-11-10T17:01:45.804Z,6.99
2023-11-10T17:04:15.090Z,7.15
2023-11-10T17:06:43.072Z,7.04
2023-11-10T17:09:13.159Z,6.98
2023-11-10T17:11:41.037Z,6.87
2023-11-10T17:14:08.939Z,6.85
2023-11-10T17:16:39.305Z,6.67
2023-11-10T17:19:07.751Z,6.99
2023-11-10T17:21:37.454Z,7.00
2023-11-10T17:24:05.557Z,6.46
2023-11-10T17:26:33.236Z,6.88
2023-11-10T17:29:02.326Z,6.94
2023-11-10T17:31:30.942Z,6.93
2023-11-10T17:33:58.753Z,6.92
2023-11-10T17:36:26.369Z,6.91
2023-11-10T17:38:53.877Z,6.88
2023-11-10T17:41:21.965Z,6.82
2023-11-10T17:43:49.780Z,6.85
2023-11-10T17:46:17.346Z,6.93
2023-11-10T17:48:44.747Z,6.87
2023-11-10T17:51:13.954Z,6.68
2023-11-10T17:53:41.850Z,6.70
2023-11-10T17:56:09.926Z,6.63
2023-11-10T17:58:40.031Z,6.56
2023-11-10T18:01:09.493Z,6.51
2023-11-10T18:03:38.498Z,6.38
2023-11-10T18:06:06.465Z,6.44
2023-11-10T18:08:35.127Z,6.34
2023-11-10T18:11:02.981Z,6.39
2023-11-10T18:13:30.452Z,6.32
2023-11-10T18:15:59.098Z,6.37
2023-11-10T18:18:26.564Z,6.39
2023-11-10T18:20:55.034Z,6.30
2023-11-10T18:23:23.795Z,6.45
2023-11-10T18:25:51.912Z,5.88
2023-11-10T18:28:19.507Z,6.33
2023-11-10T18:30:47.227Z,6.28
2023-11-10T18:33:14.741Z,5.93
2023-11-10T18:35:42.452Z,6.09
2023-11-10T18:38:10.172Z,6.04
2023-11-10T18:40:39.192Z,5.77
2023-11-10T18:43:06.683Z,5.93
2023-11-10T18:45:35.280Z,5.87
2023-11-10T18:48:02.925Z,5.56
2023-11-10T18:50:30.538Z,5.80
2023-11-10T18:52:58.318Z,5.76
2023-11-10T18:55:27.228Z,5.72
2023-11-10T18:57:54.576Z,5.73
2023-11-10T19:00:22.701Z,5.74
2023-11-10T19:02:50.596Z,5.66
2023-11-10T19:05:18.725Z,5.61
2023-11-10T19:07:46.271Z,5.56
2023-11-10T19:10:14.485Z,5.54
2023-11-10T19:12:49.728Z,5.29
2023-11-10T19:15:17.561Z,5.42
2023-11-10T19:17:45.020Z,5.44
2023-11-10T19:20:12.812Z,5.51
2023-11-10T19:22:41.123Z,5.21
2023-11-10T19:25:10.471Z,5.44
2023-11-10T19:27:40.184Z,5.36
2023-11-10T19:30:08.551Z,5.33
2023-11-10T19:32:36.137Z,5.31
2023-11-10T19:35:03.940Z,5.31
2023-11-10T19:37:33.116Z,5.27
2023-11-10T19:40:00.826Z,5.25
2023-11-10T19:42:31.456Z,5.21
2023-11-10T19:44:58.903Z,5.20
2023-11-10T19:47:26.448Z,5.13
2023-11-10T19:49:55.327Z,5.12
2023-11-10T19:52:25.888Z,4.77
2023-11-10T19:54:57.276Z,5.08
2023-11-10T19:57:25.106Z,4.67
2023-11-10T20:02:23.415Z,4.95
2023-11-10T20:04:50.908Z,4.95
2023-11-10T20:07:18.389Z,4.92
2023-11-10T20:09:46.338Z,4.92
2023-11-10T20:12:14.639Z,4.85
2023-11-10T20:14:42.102Z,4.68
2023-11-10T20:17:09.832Z,4.87
2023-11-10T20:19:38.072Z,4.87
2023-11-10T20:22:07.459Z,4.89
2023-11-10T20:24:35.418Z,4.89
2023-11-10T20:27:03.268Z,4.58
2023-11-10T20:29:30.728Z,4.48
2023-11-10T20:31:58.240Z,4.75
2023-11-10T20:34:25.825Z,4.74
2023-11-10T20:36:53.768Z,4.70
2023-11-10T20:39:21.494Z,4.41
2023-11-10T20:41:49.284Z,4.65
2023-11-10T20:44:16.592Z,4.61
2023-11-10T20:46:47.337Z,4.60
2023-11-10T20:49:15.169Z,4.57
2023-11-10T20:51:43.702Z,4.57
2023-11-10T20:54:11.443Z,4.59
2023-11-10T20:56:39.090Z,4.09
2023-11-10T20:59:08.707Z,4.49
2023-11-10T21:01:36.224Z,4.56
2023-11-10T21:04:03.996Z,4.04
2023-11-10T21:06:31.564Z,4.59
2023-11-10T21:08:59.497Z,4.57
2023-11-10T21:11:27.062Z,4.52
2023-11-10T21:13:57.269Z,4.49
2023-11-10T21:16:25.039Z,4.47
2023-11-10T21:18:52.533Z,4.52
2023-11-10T21:21:20.908Z,4.53
2023-11-10T21:23:48.429Z,4.55
2023-11-10T21:26:20.612Z,4.55
2023-11-10T21:28:48.037Z,4.54
2023-11-10T21:31:15.432Z,4.64
2023-11-10T21:33:43.203Z,4.32
2023-11-10T21:36:10.919Z,4.60
2023-11-10T21:38:41.109Z,4.67
2023-11-10T21:41:08.991Z,4.35
2023-11-10T21:43:36.646Z,4.25
2023-11-10T21:46:04.451Z,4.72
2023-11-10T21:48:32.076Z,4.74
2023-11-10T21:51:01.754Z,4.83
2023-11-10T21:53:29.490Z,4.74
2023-11-10T21:55:57.118Z,4.86
2023-11-10T21:58:24.523Z,4.82
2023-11-10T22:00:52.101Z,4.84
2023-11-10T22:03:19.768Z,4.40
2023-11-10T22:05:47.098Z,4.79
2023-11-10T22:08:14.496Z,4.73
2023-11-10T22:10:42.679Z,4.47
2023-11-10T22:13:10.232Z,4.33
2023-11-10T22:15:38.114Z,4.59
2023-11-10T22:18:09.636Z,4.56
2023-11-10T22:20:37.346Z,4.45
2023-11-10T22:23:04.983Z,3.94
2023-11-10T22:25:33.096Z,4.27
2023-11-10T22:28:02.004Z,4.40
2023-11-10T22:30:29.667Z,4.36
2023-11-10T22:32:57.588Z,4.32
2023-11-10T22:35:25.379Z,4.17
2023-11-10T22:37:53.104Z,4.23
2023-11-10T22:40:20.967Z,4.25
2023-11-10T22:42:48.571Z,4.23
2023-11-10T22:45:17.590Z,4.19
2023-11-10T22:47:48.387Z,4.12
2023-11-10T22:50:17.317Z,4.14
2023-11-10T22:52:44.862Z,4.11
2023-11-10T22:55:16.856Z,4.10
2023-11-10T22:57:47.041Z,3.90
2023-11-10T23:00:34.582Z,3.97
2023-11-10T23:03:08.458Z,3.84
2023-11-10T23:05:36.807Z,3.87
2023-11-10T23:08:04.686Z,3.81
2023-11-10T23:10:32.158Z,3.78
2023-11-10T23:13:00.475Z,3.81
2023-11-10T23:15:28.304Z,3.82
2023-11-10T23:18:00.018Z,3.76
2023-11-10T23:20:34.731Z,3.82
2023-11-10T23:23:05.423Z,3.57
2023-11-10T23:25:34.425Z,3.86
2023-11-10T23:28:01.980Z,3.85
2023-11-10T23:30:29.504Z,3.87
2023-11-10T23:32:57.208Z,3.48
2023-11-10T23:35:24.825Z,3.85
2023-11-10T23:37:52.378Z,3.88
2023-11-10T23:40:20.981Z,3.93
2023-11-10T23:42:48.200Z,4.11
2023-11-10T23:45:18.425Z,4.25
2023-11-10T23:47:46.145Z,4.36
2023-11-10T23:50:13.476Z,4.46
2023-11-10T23:52:41.597Z,4.61
2023-11-10T23:55:09.747Z,4.73
2023-11-10T23:57:39.175Z,4.54
